sensor_id;sensor_type;location;lat;lon;timestamp;temperature;humidity
13682;DHT22;6913;49.892;7.936;2022-08-03T00:02:10;19.70;99.90
13682;DHT22;6913;49.892;7.936;2022-08-03T00:04:38;19.60;99.90
13682;DHT22;6913;49.892;7.936;2022-08-03T00:07:05;19.60;99.90
13682;DHT22;6913;49.892;7.936;2022-08-03T00:09:32;19.60;99.90
13682;DHT22;6913;49.892;7.936;2022-08-03T00:11:59;19.50;99.90
13682;DHT22;6913;49.892;7.936;2022-08-03T00:14:25;19.50;99.90
13682;DHT22;6913;49.892;7.936;2022-08-03T00:16:52;19.40;99.90
13682;DHT22;6913;49.892;7.936;2022-08-03T00:19:19;19.40;99.90
13682;DHT22;6913;49.892;7.936;2022-08-03T00:21:47;19.30;99.90
13682;DHT22;6913;49.892;7.936;2022-08-03T00:24:14;19.40;99.90
13682;DHT22;6913;49.892;7.936;2022-08-03T00:26:41;19.20;99.90
13682;DHT22;6913;49.892;7.936;2022-08-03T00:29:08;19.20;99.90
13682;DHT22;6913;49.892;7.936;2022-08-03T00:31:35;19.20;99.90
13682;DHT22;6913;49.892;7.936;2022-08-03T00:34:02;19.30;99.90
13682;DHT22;6913;49.892;7.936;2022-08-03T00:36:28;19.00;99.90
13682;DHT22;6913;49.892;7.936;2022-08-03T00:38:57;19.30;99.90
13682;DHT22;6913;49.892;7.936;2022-08-03T00:41:23;19.00;99.90
13682;DHT22;6913;49.892;7.936;2022-08-03T00:43:50;19.00;99.90
13682;DHT22;6913;49.892;7.936;2022-08-03T00:46:17;19.00;99.90
13682;DHT22;6913;49.892;7.936;2022-08-03T00:48:46;19.00;99.90
13682;DHT22;6913;49.892;7.936;2022-08-03T00:51:13;18.90;99.90
13682;DHT22;6913;49.892;7.936;2022-08-03T00:53:40;19.10;99.90
13682;DHT22;6913;49.892;7.936;2022-08-03T00:56:11;18.90;99.90
13682;DHT22;6913;49.892;7.936;2022-08-03T00:58:38;18.90;99.90
13682;DHT22;6913;49.892;7.936;2022-08-03T01:01:05;18.90;99.90
13682;DHT22;6913;49.892;7.936;2022-08-03T01:03:32;18.80;99.90
13682;DHT22;6913;49.892;7.936;2022-08-03T01:06:06;18.70;99.90
13682;DHT22;6913;49.892;7.936;2022-08-03T01:08:40;18.70;99.90
13682;DHT22;6913;49.892;7.936;2022-08-03T01:11:16;18.70;99.90
13682;DHT22;6913;49.892;7.936;2022-08-03T01:13:51;18.60;99.90
13682;DHT22;6913;49.892;7.936;2022-08-03T01:16:27;18.30;99.90
13682;DHT22;6913;49.892;7.936;2022-08-03T01:19:01;18.40;99.90
13682;DHT22;6913;49.892;7.936;2022-08-03T01:21:42;18.30;99.90
13682;DHT22;6913;49.892;7.936;2022-08-03T01:24:25;18.40;99.90
13682;DHT22;6913;49.892;7.936;2022-08-03T01:27:04;18.40;99.90
13682;DHT22;6913;49.892;7.936;2022-08-03T01:29:51;18.40;99.90
13682;DHT22;6913;49.892;7.936;2022-08-03T01:32:27;18.30;99.90
13682;DHT22;6913;49.892;7.936;2022-08-03T01:35:09;18.30;99.90
13682;DHT22;6913;49.892;7.936;2022-08-03T01:37:39;18.30;99.90
13682;DHT22;6913;49.892;7.936;2022-08-03T01:40:09;18.20;99.90
13682;DHT22;6913;49.892;7.936;2022-08-03T01:42:39;18.20;99.90
13682;DHT22;6913;49.892;7.936;2022-08-03T01:45:12;18.20;99.90
13682;DHT22;6913;49.892;7.936;2022-08-03T01:47:39;18.30;99.90
13682;DHT22;6913;49.892;7.936;2022-08-03T01:50:08;18.10;99.90
13682;DHT22;6913;49.892;7.936;2022-08-03T01:52:37;18.10;99.90
13682;DHT22;6913;49.892;7.936;2022-08-03T01:55:07;18.10;99.90
13682;DHT22;6913;49.892;7.936;2022-08-03T01:57:35;18.10;99.90
13682;DHT22;6913;49.892;7.936;2022-08-03T02:00:04;18.00;99.90
13682;DHT22;6913;49.892;7.936;2022-08-03T02:02:36;18.00;99.90
13682;DHT22;6913;49.892;7.936;2022-08-03T02:05:07;18.00;99.90
13682;DHT22;6913;49.892;7.936;2022-08-03T02:07:35;18.00;99.90
13682;DHT22;6913;49.892;7.936;2022-08-03T02:10:04;18.30;99.90
13682;DHT22;6913;49.892;7.936;2022-08-03T02:12:32;17.90;99.90
13682;DHT22;6913;49.892;7.936;2022-08-03T02:15:01;17.80;99.90
13682;DHT22;6913;49.892;7.936;2022-08-03T02:17:29;17.90;99.90
13682;DHT22;6913;49.892;7.936;2022-08-03T02:20:00;18.20;99.90
13682;DHT22;6913;49.892;7.936;2022-08-03T02:22:29;17.90;99.90
13682;DHT22;6913;49.892;7.936;2022-08-03T02:24:56;17.80;99.90
13682;DHT22;6913;49.892;7.936;2022-08-03T02:27:25;17.80;99.90
13682;DHT22;6913;49.892;7.936;2022-08-03T02:29:57;17.80;99.90
13682;DHT22;6913;49.892;7.936;2022-08-03T02:32:29;17.70;99.90
13682;DHT22;6913;49.892;7.936;2022-08-03T02:34:59;17.90;99.90
13682;DHT22;6913;49.892;7.936;2022-08-03T02:37:30;17.70;99.90
13682;DHT22;6913;49.892;7.936;2022-08-03T02:40:01;17.70;99.90
13682;DHT22;6913;49.892;7.936;2022-08-03T02:42:31;17.60;99.90
13682;DHT22;6913;49.892;7.936;2022-08-03T02:45:02;17.60;99.90
13682;DHT22;6913;49.892;7.936;2022-08-03T02:47:30;17.50;99.90
13682;DHT22;6913;49.892;7.936;2022-08-03T02:50:00;17.50;99.90
13682;DHT22;6913;49.892;7.936;2022-08-03T02:52:29;17.40;99.90
13682;DHT22;6913;49.892;7.936;2022-08-03T02:54:57;17.40;99.90
13682;DHT22;6913;49.892;7.936;2022-08-03T02:57:27;17.40;99.90
13682;DHT22;6913;49.892;7.936;2022-08-03T02:59:54;17.40;99.90
13682;DHT22;6913;49.892;7.936;2022-08-03T03:02:23;17.30;99.90
13682;DHT22;6913;49.892;7.936;2022-08-03T03:04:51;17.30;99.90
13682;DHT22;6913;49.892;7.936;2022-08-03T03:07:20;17.40;99.90
13682;DHT22;6913;49.892;7.936;2022-08-03T03:09:47;17.30;99.90
13682;DHT22;6913;49.892;7.936;2022-08-03T03:12:15;17.20;99.90
13682;DHT22;6913;49.892;7.936;2022-08-03T03:14:43;17.20;99.90
13682;DHT22;6913;49.892;7.936;2022-08-03T03:17:10;17.10;99.90
13682;DHT22;6913;49.892;7.936;2022-08-03T03:19:38;17.10;99.90
13682;DHT22;6913;49.892;7.936;2022-08-03T03:22:06;17.10;99.90
13682;DHT22;6913;49.892;7.936;2022-08-03T03:24:35;17.20;99.90
13682;DHT22;6913;49.892;7.936;2022-08-03T03:27:03;17.00;99.90
13682;DHT22;6913;49.892;7.936;2022-08-03T03:29:31;17.00;99.90
13682;DHT22;6913;49.892;7.936;2022-08-03T03:31:59;16.90;99.90
13682;DHT22;6913;49.892;7.936;2022-08-03T03:34:28;17.00;99.90
13682;DHT22;6913;49.892;7.936;2022-08-03T03:36:55;16.80;99.90
13682;DHT22;6913;49.892;7.936;2022-08-03T03:39:22;16.80;99.90
13682;DHT22;6913;49.892;7.936;2022-08-03T03:41:50;16.80;99.90
13682;DHT22;6913;49.892;7.936;2022-08-03T03:44:18;16.80;99.90
13682;DHT22;6913;49.892;7.936;2022-08-03T03:46:44;16.70;99.90
13682;DHT22;6913;49.892;7.936;2022-08-03T03:49:11;16.70;99.90
13682;DHT22;6913;49.892;7.936;2022-08-03T03:51:38;16.70;99.90
13682;DHT22;6913;49.892;7.936;2022-08-03T03:54:05;16.60;99.90
13682;DHT22;6913;49.892;7.936;2022-08-03T03:56:32;16.70;99.90
13682;DHT22;6913;49.892;7.936;2022-08-03T03:59:00;16.60;99.90
13682;DHT22;6913;49.892;7.936;2022-08-03T04:01:27;16.50;99.90
13682;DHT22;6913;49.892;7.936;2022-08-03T04:03:54;16.50;99.90
13682;DHT22;6913;49.892;7.936;2022-08-03T04:06:21;16.50;99.90
13682;DHT22;6913;49.892;7.936;2022-08-03T04:09:07;16.50;99.90
13682;DHT22;6913;49.892;7.936;2022-08-03T04:11:55;16.50;99.90
13682;DHT22;6913;49.892;7.936;2022-08-03T04:14:28;16.50;99.90
13682;DHT22;6913;49.892;7.936;2022-08-03T04:17:00;16.50;99.90
13682;DHT22;6913;49.892;7.936;2022-08-03T04:19:31;16.50;99.90
13682;DHT22;6913;49.892;7.936;2022-08-03T04:22:02;16.60;99.90
13682;DHT22;6913;49.892;7.936;2022-08-03T04:24:32;16.40;99.90
13682;DHT22;6913;49.892;7.936;2022-08-03T04:27:00;16.50;99.90
13682;DHT22;6913;49.892;7.936;2022-08-03T04:29:30;16.50;99.90
13682;DHT22;6913;49.892;7.936;2022-08-03T04:32:00;16.60;99.90
13682;DHT22;6913;49.892;7.936;2022-08-03T04:34:27;16.80;99.90
13682;DHT22;6913;49.892;7.936;2022-08-03T04:36:58;17.10;99.90
13682;DHT22;6913;49.892;7.936;2022-08-03T04:39:27;17.40;99.90
13682;DHT22;6913;49.892;7.936;2022-08-03T04:41:57;17.60;99.90
13682;DHT22;6913;49.892;7.936;2022-08-03T04:44:26;17.70;99.90
13682;DHT22;6913;49.892;7.936;2022-08-03T04:46:55;17.60;99.90
13682;DHT22;6913;49.892;7.936;2022-08-03T04:49:23;17.70;99.90
13682;DHT22;6913;49.892;7.936;2022-08-03T04:51:49;17.90;99.90
13682;DHT22;6913;49.892;7.936;2022-08-03T04:54:17;18.10;99.90
13682;DHT22;6913;49.892;7.936;2022-08-03T04:56:43;18.50;99.90
13682;DHT22;6913;49.892;7.936;2022-08-03T04:59:11;18.90;99.90
13682;DHT22;6913;49.892;7.936;2022-08-03T05:01:38;19.30;99.90
13682;DHT22;6913;49.892;7.936;2022-08-03T05:04:06;19.70;99.90
13682;DHT22;6913;49.892;7.936;2022-08-03T05:06:33;19.90;99.90
13682;DHT22;6913;49.892;7.936;2022-08-03T05:09:00;20.10;99.90
13682;DHT22;6913;49.892;7.936;2022-08-03T05:11:27;20.30;99.90
13682;DHT22;6913;49.892;7.936;2022-08-03T05:13:54;20.70;99.90
13682;DHT22;6913;49.892;7.936;2022-08-03T05:16:21;21.10;99.90
13682;DHT22;6913;49.892;7.936;2022-08-03T05:18:50;21.50;99.90
13682;DHT22;6913;49.892;7.936;2022-08-03T05:21:19;21.50;99.90
13682;DHT22;6913;49.892;7.936;2022-08-03T05:23:45;21.70;99.90
13682;DHT22;6913;49.892;7.936;2022-08-03T05:26:13;21.70;99.90
13682;DHT22;6913;49.892;7.936;2022-08-03T05:28:45;22.00;99.90
13682;DHT22;6913;49.892;7.936;2022-08-03T05:31:17;22.50;99.90
13682;DHT22;6913;49.892;7.936;2022-08-03T05:33:49;23.10;99.90
13682;DHT22;6913;49.892;7.936;2022-08-03T05:36:17;23.40;99.90
13682;DHT22;6913;49.892;7.936;2022-08-03T05:38:52;23.50;99.90
13682;DHT22;6913;49.892;7.936;2022-08-03T05:41:33;23.80;99.90
13682;DHT22;6913;49.892;7.936;2022-08-03T05:44:00;23.60;99.90
13682;DHT22;6913;49.892;7.936;2022-08-03T05:46:27;23.70;99.90
13682;DHT22;6913;49.892;7.936;2022-08-03T05:48:54;23.80;99.90
13682;DHT22;6913;49.892;7.936;2022-08-03T05:51:22;24.40;99.90
13682;DHT22;6913;49.892;7.936;2022-08-03T05:53:49;23.90;99.90
13682;DHT22;6913;49.892;7.936;2022-08-03T05:56:20;24.40;99.90
13682;DHT22;6913;49.892;7.936;2022-08-03T05:58:47;24.70;99.90
13682;DHT22;6913;49.892;7.936;2022-08-03T06:01:15;25.30;99.90
13682;DHT22;6913;49.892;7.936;2022-08-03T06:03:43;25.30;99.90
13682;DHT22;6913;49.892;7.936;2022-08-03T06:06:10;25.70;99.90
13682;DHT22;6913;49.892;7.936;2022-08-03T06:08:38;25.70;99.90
13682;DHT22;6913;49.892;7.936;2022-08-03T06:11:05;25.30;99.90
13682;DHT22;6913;49.892;7.936;2022-08-03T06:13:32;25.20;99.90
13682;DHT22;6913;49.892;7.936;2022-08-03T06:15:59;24.80;99.90
13682;DHT22;6913;49.892;7.936;2022-08-03T06:18:27;24.50;99.90
13682;DHT22;6913;49.892;7.936;2022-08-03T06:20:53;25.40;99.90
13682;DHT22;6913;49.892;7.936;2022-08-03T06:23:21;25.60;99.90
13682;DHT22;6913;49.892;7.936;2022-08-03T06:25:49;26.30;99.90
13682;DHT22;6913;49.892;7.936;2022-08-03T06:28:16;27.00;99.90
13682;DHT22;6913;49.892;7.936;2022-08-03T06:30:43;27.70;99.90
13682;DHT22;6913;49.892;7.936;2022-08-03T06:33:11;27.80;99.90
13682;DHT22;6913;49.892;7.936;2022-08-03T06:35:37;28.10;99.90
13682;DHT22;6913;49.892;7.936;2022-08-03T06:38:04;28.10;99.90
13682;DHT22;6913;49.892;7.936;2022-08-03T06:40:34;28.70;99.90
13682;DHT22;6913;49.892;7.936;2022-08-03T06:43:06;28.80;99.90
13682;DHT22;6913;49.892;7.936;2022-08-03T06:45:33;28.40;99.90
13682;DHT22;6913;49.892;7.936;2022-08-03T06:48:02;28.50;99.90
13682;DHT22;6913;49.892;7.936;2022-08-03T06:50:29;29.00;99.90
13682;DHT22;6913;49.892;7.936;2022-08-03T06:52:56;28.70;99.90
13682;DHT22;6913;49.892;7.936;2022-08-03T06:55:23;28.60;99.90
13682;DHT22;6913;49.892;7.936;2022-08-03T06:57:50;29.30;99.90
13682;DHT22;6913;49.892;7.936;2022-08-03T07:00:18;29.60;99.90
13682;DHT22;6913;49.892;7.936;2022-08-03T07:02:45;29.80;99.90
13682;DHT22;6913;49.892;7.936;2022-08-03T07:05:12;29.90;99.90
13682;DHT22;6913;49.892;7.936;2022-08-03T07:07:39;30.10;99.90
13682;DHT22;6913;49.892;7.936;2022-08-03T07:10:07;29.90;99.40
13682;DHT22;6913;49.892;7.936;2022-08-03T07:12:36;30.30;99.90
13682;DHT22;6913;49.892;7.936;2022-08-03T07:15:04;30.80;98.70
13682;DHT22;6913;49.892;7.936;2022-08-03T07:17:50;31.30;98.00
13682;DHT22;6913;49.892;7.936;2022-08-03T07:20:19;31.50;96.60
13682;DHT22;6913;49.892;7.936;2022-08-03T07:22:49;31.80;96.30
13682;DHT22;6913;49.892;7.936;2022-08-03T07:25:16;31.90;96.30
13682;DHT22;6913;49.892;7.936;2022-08-03T07:27:42;32.00;95.80
13682;DHT22;6913;49.892;7.936;2022-08-03T07:30:10;32.20;95.70
13682;DHT22;6913;49.892;7.936;2022-08-03T07:32:37;32.40;94.70
13682;DHT22;6913;49.892;7.936;2022-08-03T07:35:06;32.00;95.90
13682;DHT22;6913;49.892;7.936;2022-08-03T07:37:33;31.90;95.30
13682;DHT22;6913;49.892;7.936;2022-08-03T07:40:02;31.60;96.00
13682;DHT22;6913;49.892;7.936;2022-08-03T07:42:29;32.90;95.30
13682;DHT22;6913;49.892;7.936;2022-08-03T07:44:57;33.20;93.80
13682;DHT22;6913;49.892;7.936;2022-08-03T07:47:26;32.90;92.20
13682;DHT22;6913;49.892;7.936;2022-08-03T07:49:54;32.10;93.60
13682;DHT22;6913;49.892;7.936;2022-08-03T07:52:22;31.10;94.00
13682;DHT22;6913;49.892;7.936;2022-08-03T07:55:07;30.80;94.40
13682;DHT22;6913;49.892;7.936;2022-08-03T07:57:34;31.10;94.90
13682;DHT22;6913;49.892;7.936;2022-08-03T08:00:03;32.20;93.00
13682;DHT22;6913;49.892;7.936;2022-08-03T08:02:30;32.60;93.50
13682;DHT22;6913;49.892;7.936;2022-08-03T08:04:57;32.90;91.80
13682;DHT22;6913;49.892;7.936;2022-08-03T08:07:25;32.40;92.50
13682;DHT22;6913;49.892;7.936;2022-08-03T08:09:52;31.20;92.20
13682;DHT22;6913;49.892;7.936;2022-08-03T08:12:19;31.00;93.20
13682;DHT22;6913;49.892;7.936;2022-08-03T08:14:46;30.40;94.00
13682;DHT22;6913;49.892;7.936;2022-08-03T08:17:13;30.00;93.90
13682;DHT22;6913;49.892;7.936;2022-08-03T08:19:42;30.60;95.20
13682;DHT22;6913;49.892;7.936;2022-08-03T08:22:10;31.60;92.90
13682;DHT22;6913;49.892;7.936;2022-08-03T08:24:38;31.80;92.60
13682;DHT22;6913;49.892;7.936;2022-08-03T08:27:05;32.00;92.60
13682;DHT22;6913;49.892;7.936;2022-08-03T08:29:33;32.30;91.80
13682;DHT22;6913;49.892;7.936;2022-08-03T08:32:00;32.10;91.20
13682;DHT22;6913;49.892;7.936;2022-08-03T08:34:27;32.70;91.80
13682;DHT22;6913;49.892;7.936;2022-08-03T08:36:53;32.50;92.70
13682;DHT22;6913;49.892;7.936;2022-08-03T08:39:20;32.90;91.20
13682;DHT22;6913;49.892;7.936;2022-08-03T08:41:51;34.00;88.50
13682;DHT22;6913;49.892;7.936;2022-08-03T08:44:18;35.00;87.30
13682;DHT22;6913;49.892;7.936;2022-08-03T08:46:45;35.60;85.90
13682;DHT22;6913;49.892;7.936;2022-08-03T08:49:17;36.30;81.20
13682;DHT22;6913;49.892;7.936;2022-08-03T08:51:50;36.80;79.80
13682;DHT22;6913;49.892;7.936;2022-08-03T08:54:20;36.60;76.30
13682;DHT22;6913;49.892;7.936;2022-08-03T08:56:48;36.50;73.60
13682;DHT22;6913;49.892;7.936;2022-08-03T08:59:18;36.00;76.40
13682;DHT22;6913;49.892;7.936;2022-08-03T09:01:45;36.10;75.50
13682;DHT22;6913;49.892;7.936;2022-08-03T09:04:13;36.50;75.80
13682;DHT22;6913;49.892;7.936;2022-08-03T09:06:40;36.70;74.40
13682;DHT22;6913;49.892;7.936;2022-08-03T09:09:12;35.30;75.40
13682;DHT22;6913;49.892;7.936;2022-08-03T09:11:41;35.80;73.10
13682;DHT22;6913;49.892;7.936;2022-08-03T09:14:08;35.50;74.30
13682;DHT22;6913;49.892;7.936;2022-08-03T09:16:37;35.80;74.00
13682;DHT22;6913;49.892;7.936;2022-08-03T09:19:11;36.40;71.10
13682;DHT22;6913;49.892;7.936;2022-08-03T09:21:39;37.20;70.60
13682;DHT22;6913;49.892;7.936;2022-08-03T09:24:06;36.60;66.80
13682;DHT22;6913;49.892;7.936;2022-08-03T09:26:34;36.70;68.60
13682;DHT22;6913;49.892;7.936;2022-08-03T09:29:03;37.60;68.80
13682;DHT22;6913;49.892;7.936;2022-08-03T09:31:31;37.50;68.00
13682;DHT22;6913;49.892;7.936;2022-08-03T09:34:02;38.30;65.90
13682;DHT22;6913;49.892;7.936;2022-08-03T09:36:36;38.60;63.10
13682;DHT22;6913;49.892;7.936;2022-08-03T09:39:05;37.90;60.00
13682;DHT22;6913;49.892;7.936;2022-08-03T09:41:32;36.90;57.30
13682;DHT22;6913;49.892;7.936;2022-08-03T09:43:59;35.70;58.70
13682;DHT22;6913;49.892;7.936;2022-08-03T09:46:26;35.30;59.70
13682;DHT22;6913;49.892;7.936;2022-08-03T09:49:12;34.40;59.60
13682;DHT22;6913;49.892;7.936;2022-08-03T09:51:39;34.50;62.00
13682;DHT22;6913;49.892;7.936;2022-08-03T09:54:07;35.90;61.40
13682;DHT22;6913;49.892;7.936;2022-08-03T09:56:41;34.80;64.60
13682;DHT22;6913;49.892;7.936;2022-08-03T09:59:09;35.30;62.10
13682;DHT22;6913;49.892;7.936;2022-08-03T10:01:37;36.20;63.00
13682;DHT22;6913;49.892;7.936;2022-08-03T10:04:11;36.50;57.80
13682;DHT22;6913;49.892;7.936;2022-08-03T10:06:42;37.00;60.90
13682;DHT22;6913;49.892;7.936;2022-08-03T10:09:11;37.50;57.40
13682;DHT22;6913;49.892;7.936;2022-08-03T10:11:39;36.50;57.70
13682;DHT22;6913;49.892;7.936;2022-08-03T10:14:08;36.60;57.20
13682;DHT22;6913;49.892;7.936;2022-08-03T10:16:37;35.60;58.30
13682;DHT22;6913;49.892;7.936;2022-08-03T10:19:06;34.90;59.10
13682;DHT22;6913;49.892;7.936;2022-08-03T10:21:37;35.10;61.00
13682;DHT22;6913;49.892;7.936;2022-08-03T10:24:07;35.90;59.00
13682;DHT22;6913;49.892;7.936;2022-08-03T10:26:37;35.40;60.00
13682;DHT22;6913;49.892;7.936;2022-08-03T10:29:08;35.70;59.80
13682;DHT22;6913;49.892;7.936;2022-08-03T10:31:39;35.80;58.10
13682;DHT22;6913;49.892;7.936;2022-08-03T10:34:17;35.90;59.90
13682;DHT22;6913;49.892;7.936;2022-08-03T10:36:46;36.80;57.60
13682;DHT22;6913;49.892;7.936;2022-08-03T10:39:18;36.80;56.80
13682;DHT22;6913;49.892;7.936;2022-08-03T10:41:57;36.80;59.10
13682;DHT22;6913;49.892;7.936;2022-08-03T10:44:28;36.80;55.60
13682;DHT22;6913;49.892;7.936;2022-08-03T10:46:58;35.90;57.10
13682;DHT22;6913;49.892;7.936;2022-08-03T10:49:33;35.80;59.20
13682;DHT22;6913;49.892;7.936;2022-08-03T10:52:02;36.40;57.50
13682;DHT22;6913;49.892;7.936;2022-08-03T10:54:42;35.90;56.20
13682;DHT22;6913;49.892;7.936;2022-08-03T10:57:47;35.00;57.70
13682;DHT22;6913;49.892;7.936;2022-08-03T11:00:15;34.90;58.90
13682;DHT22;6913;49.892;7.936;2022-08-03T11:03:08;34.60;59.50
13682;DHT22;6913;49.892;7.936;2022-08-03T11:05:39;33.80;58.40
13682;DHT22;6913;49.892;7.936;2022-08-03T11:08:29;33.90;58.60
13682;DHT22;6913;49.892;7.936;2022-08-03T11:11:02;34.00;59.40
13682;DHT22;6913;49.892;7.936;2022-08-03T11:13:57;35.70;58.80
13682;DHT22;6913;49.892;7.936;2022-08-03T11:16:26;36.10;57.70
13682;DHT22;6913;49.892;7.936;2022-08-03T11:18:58;36.20;56.70
13682;DHT22;6913;49.892;7.936;2022-08-03T11:21:56;35.70;57.20
13682;DHT22;6913;49.892;7.936;2022-08-03T11:24:58;36.10;57.50
13682;DHT22;6913;49.892;7.936;2022-08-03T11:27:30;36.80;55.00
13682;DHT22;6913;49.892;7.936;2022-08-03T11:30:06;36.80;54.50
13682;DHT22;6913;49.892;7.936;2022-08-03T11:32:55;36.30;54.00
13682;DHT22;6913;49.892;7.936;2022-08-03T11:35:24;35.80;54.60
13682;DHT22;6913;49.892;7.936;2022-08-03T11:38:06;36.10;55.90
13682;DHT22;6913;49.892;7.936;2022-08-03T11:40:42;36.00;54.50
13682;DHT22;6913;49.892;7.936;2022-08-03T11:43:42;35.10;54.60
13682;DHT22;6913;49.892;7.936;2022-08-03T11:46:10;36.20;55.60
13682;DHT22;6913;49.892;7.936;2022-08-03T11:48:44;37.40;54.40
13682;DHT22;6913;49.892;7.936;2022-08-03T11:51:20;37.10;52.30
13682;DHT22;6913;49.892;7.936;2022-08-03T11:53:51;37.00;53.50
13682;DHT22;6913;49.892;7.936;2022-08-03T11:56:19;37.60;53.00
13682;DHT22;6913;49.892;7.936;2022-08-03T12:01:46;35.70;54.90
13682;DHT22;6913;49.892;7.936;2022-08-03T12:04:13;35.50;53.10
13682;DHT22;6913;49.892;7.936;2022-08-03T12:06:40;35.90;53.40
13682;DHT22;6913;49.892;7.936;2022-08-03T12:09:21;35.90;54.50
13682;DHT22;6913;49.892;7.936;2022-08-03T12:11:48;36.90;52.70
13682;DHT22;6913;49.892;7.936;2022-08-03T12:14:18;37.70;51.80
13682;DHT22;6913;49.892;7.936;2022-08-03T12:16:48;37.50;52.30
13682;DHT22;6913;49.892;7.936;2022-08-03T12:19:15;36.30;53.80
13682;DHT22;6913;49.892;7.936;2022-08-03T12:21:46;36.60;51.80
13682;DHT22;6913;49.892;7.936;2022-08-03T12:24:14;37.20;52.40
13682;DHT22;6913;49.892;7.936;2022-08-03T12:26:45;38.00;52.20
13682;DHT22;6913;49.892;7.936;2022-08-03T12:29:16;37.90;51.30
13682;DHT22;6913;49.892;7.936;2022-08-03T12:31:43;38.20;50.10
13682;DHT22;6913;49.892;7.936;2022-08-03T12:34:12;37.30;50.40
13682;DHT22;6913;49.892;7.936;2022-08-03T12:36:54;37.60;51.60
13682;DHT22;6913;49.892;7.936;2022-08-03T12:39:25;38.60;50.40
13682;DHT22;6913;49.892;7.936;2022-08-03T12:41:55;39.20;48.90
13682;DHT22;6913;49.892;7.936;2022-08-03T12:44:29;37.90;50.20
13682;DHT22;6913;49.892;7.936;2022-08-03T12:46:57;38.10;49.20
13682;DHT22;6913;49.892;7.936;2022-08-03T12:49:26;38.10;50.60
13682;DHT22;6913;49.892;7.936;2022-08-03T12:51:57;38.90;49.00
13682;DHT22;6913;49.892;7.936;2022-08-03T12:54:26;39.20;48.60
13682;DHT22;6913;49.892;7.936;2022-08-03T12:56:57;39.60;48.30
13682;DHT22;6913;49.892;7.936;2022-08-03T12:59:26;39.80;48.10
13682;DHT22;6913;49.892;7.936;2022-08-03T13:01:53;39.30;46.60
13682;DHT22;6913;49.892;7.936;2022-08-03T13:04:30;38.50;48.50
13682;DHT22;6913;49.892;7.936;2022-08-03T13:06:58;38.40;48.70
13682;DHT22;6913;49.892;7.936;2022-08-03T13:09:26;38.50;49.10
13682;DHT22;6913;49.892;7.936;2022-08-03T13:12:07;37.40;50.30
13682;DHT22;6913;49.892;7.936;2022-08-03T13:14:35;38.20;48.80
13682;DHT22;6913;49.892;7.936;2022-08-03T13:17:04;38.60;48.10
13682;DHT22;6913;49.892;7.936;2022-08-03T13:19:43;38.60;48.60
13682;DHT22;6913;49.892;7.936;2022-08-03T13:22:18;38.30;48.00
13682;DHT22;6913;49.892;7.936;2022-08-03T13:24:46;37.50;48.90
13682;DHT22;6913;49.892;7.936;2022-08-03T13:27:14;37.30;48.00
13682;DHT22;6913;49.892;7.936;2022-08-03T13:29:42;37.10;49.40
13682;DHT22;6913;49.892;7.936;2022-08-03T13:32:10;37.20;48.50
13682;DHT22;6913;49.892;7.936;2022-08-03T13:34:40;36.90;49.40
13682;DHT22;6913;49.892;7.936;2022-08-03T13:37:11;37.10;49.60
13682;DHT22;6913;49.892;7.936;2022-08-03T13:39:39;36.80;49.20
13682;DHT22;6913;49.892;7.936;2022-08-03T13:42:06;37.50;48.50
13682;DHT22;6913;49.892;7.936;2022-08-03T13:44:34;37.70;47.50
13682;DHT22;6913;49.892;7.936;2022-08-03T13:47:02;35.60;49.10
13682;DHT22;6913;49.892;7.936;2022-08-03T13:49:45;35.20;49.20
13682;DHT22;6913;49.892;7.936;2022-08-03T13:52:12;35.20;49.90
13682;DHT22;6913;49.892;7.936;2022-08-03T13:54:39;35.80;50.10
13682;DHT22;6913;49.892;7.936;2022-08-03T13:57:20;35.30;49.20
13682;DHT22;6913;49.892;7.936;2022-08-03T13:59:47;36.60;49.00
13682;DHT22;6913;49.892;7.936;2022-08-03T14:02:17;35.70;49.00
13682;DHT22;6913;49.892;7.936;2022-08-03T14:04:46;35.30;49.40
13682;DHT22;6913;49.892;7.936;2022-08-03T14:07:15;36.00;49.80
13682;DHT22;6913;49.892;7.936;2022-08-03T14:09:43;36.90;48.20
13682;DHT22;6913;49.892;7.936;2022-08-03T14:12:11;37.40;48.10
13682;DHT22;6913;49.892;7.936;2022-08-03T14:14:38;37.50;48.20
13682;DHT22;6913;49.892;7.936;2022-08-03T14:17:05;38.00;47.90
13682;DHT22;6913;49.892;7.936;2022-08-03T14:20:04;38.30;47.70
13682;DHT22;6913;49.892;7.936;2022-08-03T14:22:34;38.70;45.80
13682;DHT22;6913;49.892;7.936;2022-08-03T14:25:00;38.30;46.90
13682;DHT22;6913;49.892;7.936;2022-08-03T14:27:27;38.60;46.30
13682;DHT22;6913;49.892;7.936;2022-08-03T14:29:54;38.60;46.10
13682;DHT22;6913;49.892;7.936;2022-08-03T14:32:24;38.80;46.00
13682;DHT22;6913;49.892;7.936;2022-08-03T14:34:51;37.20;47.20
13682;DHT22;6913;49.892;7.936;2022-08-03T14:37:20;36.90;48.10
13682;DHT22;6913;49.892;7.936;2022-08-03T14:39:47;36.60;47.60
13682;DHT22;6913;49.892;7.936;2022-08-03T14:42:14;36.00;48.00
13682;DHT22;6913;49.892;7.936;2022-08-03T14:44:41;36.40;48.60
13682;DHT22;6913;49.892;7.936;2022-08-03T14:47:08;37.20;47.40
13682;DHT22;6913;49.892;7.936;2022-08-03T14:49:35;37.60;47.40
13682;DHT22;6913;49.892;7.936;2022-08-03T14:52:03;38.00;46.30
13682;DHT22;6913;49.892;7.936;2022-08-03T14:54:31;38.40;46.90
13682;DHT22;6913;49.892;7.936;2022-08-03T14:56:58;38.50;46.30
13682;DHT22;6913;49.892;7.936;2022-08-03T14:59:25;38.20;46.60
13682;DHT22;6913;49.892;7.936;2022-08-03T15:01:52;37.50;46.70
13682;DHT22;6913;49.892;7.936;2022-08-03T15:04:20;37.80;46.60
13682;DHT22;6913;49.892;7.936;2022-08-03T15:06:47;37.60;46.90
13682;DHT22;6913;49.892;7.936;2022-08-03T15:09:14;37.80;46.60
13682;DHT22;6913;49.892;7.936;2022-08-03T15:11:54;38.00;46.70
13682;DHT22;6913;49.892;7.936;2022-08-03T15:14:22;37.10;46.20
13682;DHT22;6913;49.892;7.936;2022-08-03T15:16:51;37.10;47.40
13682;DHT22;6913;49.892;7.936;2022-08-03T15:19:19;36.50;46.30
13682;DHT22;6913;49.892;7.936;2022-08-03T15:21:46;35.80;48.50
13682;DHT22;6913;49.892;7.936;2022-08-03T15:24:13;36.50;47.20
13682;DHT22;6913;49.892;7.936;2022-08-03T15:26:41;37.10;46.90
13682;DHT22;6913;49.892;7.936;2022-08-03T15:29:08;37.00;46.30
13682;DHT22;6913;49.892;7.936;2022-08-03T15:31:35;37.10;47.20
13682;DHT22;6913;49.892;7.936;2022-08-03T15:34:02;37.30;46.80
13682;DHT22;6913;49.892;7.936;2022-08-03T15:36:30;37.30;46.50
13682;DHT22;6913;49.892;7.936;2022-08-03T15:38:57;37.30;46.30
13682;DHT22;6913;49.892;7.936;2022-08-03T15:41:24;37.10;46.40
13682;DHT22;6913;49.892;7.936;2022-08-03T15:43:53;36.20;46.50
13682;DHT22;6913;49.892;7.936;2022-08-03T15:46:30;36.40;46.80
13682;DHT22;6913;49.892;7.936;2022-08-03T15:48:59;36.10;47.10
13682;DHT22;6913;49.892;7.936;2022-08-03T15:51:40;36.00;46.80
13682;DHT22;6913;49.892;7.936;2022-08-03T15:54:07;35.50;47.50
13682;DHT22;6913;49.892;7.936;2022-08-03T15:56:34;35.80;48.00
13682;DHT22;6913;49.892;7.936;2022-08-03T15:59:02;35.40;47.40
13682;DHT22;6913;49.892;7.936;2022-08-03T16:01:29;35.90;47.90
13682;DHT22;6913;49.892;7.936;2022-08-03T16:03:57;36.20;47.70
13682;DHT22;6913;49.892;7.936;2022-08-03T16:06:24;36.40;47.10